Date,TemperatureHighF,TemperatureAvgF,TemperatureLowF,DewpointHighF,DewpointAvgF,DewpointLowF,HumidityHigh,HumidityAvg,HumidityLow,PressureMaxIn,PressureMinIn,WindSpeedMaxMPH,WindSpeedAvgMPH,GustSpeedMaxMPH,PrecipitationSumIn
2013-1-1,34.3,17.1,6.7,18.2,3.6,-2.7,80,59,27,30.34,30.16,1,0,3,0.00
2013-1-2,34.9,19.1,6.5,12.9,3.3,-2.7,73,52,22,30.43,30.17,2,0,6,0.00
2013-1-3,40.8,17.9,1.8,8.4,-1.3,-6.9,72,48,14,30.56,30.22,2,0,2,0.00
2013-1-4,50.5,24.2,9.7,12.2,5.2,-1.2,68,49,15,30.39,29.98,2,0,3,0.00
2013-1-5,41.8,21.9,9.0,14.4,5.8,0.6,72,53,26,30.49,29.99,7,0,7,0.00
2013-1-6,49.4,24.5,6.9,17.3,4.0,-2.6,70,48,13,30.42,29.87,0,0,0,0.00
2013-1-7,56.0,34.8,17.5,11.5,6.5,0.2,62,35,10,30.09,29.75,2,0,6,0.00
2013-1-8,52.8,39.9,17.3,15.3,11.3,4.3,64,33,17,30.15,29.53,11,1,14,0.00
2013-1-9,59.6,32.0,16.9,20.4,11.6,7.8,73,48,15,30.41,29.92,5,0,5,0.00
2013-1-10,42.6,27.6,16.1,21.8,12.8,6.2,68,55,33,29.92,29.32,6,0,10,0.00
2013-1-11,41.6,27.2,12.8,22.3,11.4,-2.9,78,55,18,29.80,29.21,7,1,12,0.00
2013-1-12,17.2,7.3,-0.6,9.4,-1.0,-9.2,77,68,52,30.29,29.78,4,0,5,0.00
2013-1-13,17.2,6.3,-2.6,3.3,-4.7,-10.5,72,61,47,30.42,30.24,2,0,5,0.00
2013-1-14,14.8,5.2,-3.1,1.0,-5.4,-12.5,70,61,50,30.44,30.29,3,0,5,0.00
2013-1-15,31.3,16.4,-5.2,10.9,-0.9,-14.0,70,49,27,30.44,30.16,1,0,3,0.00
2013-1-16,55.7,29.9,14.6,21.4,11.4,5.9,75,50,20,30.46,30.09,5,0,6,0.00
2013-1-17,53.2,29.2,13.5,23.8,10.3,5.3,79,51,19,30.58,30.17,3,0,6,0.00
2013-1-18,59.9,39.0,17.3,8.3,2.6,-2.9,60,27,9,30.25,29.79,11,1,18,0.00
2013-1-19,63.2,46.6,30.1,9.2,-0.7,-9.6,31,15,6,30.14,29.78,12,1,19,0.00
2013-1-20,47.7,33.5,16.5,12.4,7.6,0.4,65,36,18,30.29,29.93,6,0,11,0.00
2013-1-21,58.0,35.9,10.5,18.7,3.7,-9.7,77,36,8,30.34,29.81,13,1,14,0.00
2013-1-22,63.2,51.0,28.7,-3.0,-13.0,-20.6,18,7,4,30.01,29.74,15,2,21,0.00
2013-1-23,51.9,35.6,19.5,8.6,2.3,-9.6,34,24,15,30.16,29.98,3,0,6,0.00
2013-1-24,66.9,46.3,22.2,23.9,13.2,0.4,49,28,10,30.07,29.70,16,2,22,0.00
2013-1-25,59.2,40.0,25.4,28.1,20.9,15.4,73,49,25,30.08,29.79,7,0,10,0.00
2013-1-26,54.4,39.8,23.3,33.7,24.7,16.2,78,58,30,30.01,29.56,3,0,5,0.00
2013-1-27,59.5,39.5,24.8,39.9,26.7,16.1,86,64,31,29.74,29.49,5,0,7,0.00
2013-1-28,54.5,31.8,20.5,27.6,20.2,11.4,86,66,27,29.77,29.40,11,1,17,0.00
2013-1-29,32.4,23.4,10.4,21.6,11.6,1.0,83,62,31,30.07,29.59,2,0,5,0.17
2013-1-30,39.5,25.8,2.8,14.2,7.3,-4.8,74,47,32,30.09,29.78,8,1,16,0.01
2013-1-31,46.8,38.1,24.2,21.8,14.1,10.7,71,39,24,30.10,29.77,10,1,17,0.01
2013-2-1,49.6,35.9,18.9,22.5,15.0,8.6,75,45,23,30.13,29.88,12,1,19,0.00
2013-2-2,59.0,36.2,18.6,21.3,12.2,4.1,73,44,12,30.41,30.04,5,0,11,0.00
2013-2-3,54.7,36.0,17.8,21.8,8.9,-3.6,73,40,10,30.19,29.76,8,0,10,0.00
2013-2-4,53.2,38.3,18.4,15.0,6.6,-1.8,64,31,11,29.98,29.69,17,2,27,0.00
2013-2-5,61.0,44.0,30.1,18.6,13.3,9.7,60,31,16,29.94,29.64,4,0,11,0.00
2013-2-6,53.9,38.7,23.6,31.5,21.9,14.9,86,56,24,29.96,29.65,7,0,10,0.03
2013-2-7,50.7,32.4,17.0,29.8,18.2,7.5,88,61,24,30.17,29.92,6,0,8,0.00
2013-2-8,51.3,28.6,15.7,17.0,9.3,4.6,67,48,15,30.00,29.61,4,0,6,0.00
2013-2-9,37.3,27.9,16.5,26.7,17.6,8.1,84,66,38,29.77,29.50,5,0,8,0.02
2013-2-10,37.6,25.6,16.4,22.1,12.8,5.7,83,61,31,30.06,29.58,2,0,5,0.01
2013-2-11,28.1,20.8,11.9,15.1,12.0,5.2,80,69,51,30.16,30.02,2,0,3,0.01
2013-2-12,43.8,24.8,6.7,8.9,0.6,-9.1,76,43,11,30.22,29.97,2,0,3,0.00
2013-2-13,48.3,34.0,14.6,14.8,8.2,4.0,64,36,20,30.03,29.83,12,1,24,0.00
2013-2-14,37.8,26.5,17.0,21.0,16.1,7.6,81,67,31,30.36,29.86,11,1,17,0.01
2013-2-15,45.5,24.2,7.4,22.2,10.8,1.4,79,60,25,30.44,30.24,5,0,8,0.04
2013-2-16,56.5,43.3,17.0,15.2,9.8,4.1,77,28,16,30.24,29.78,17,2,21,0.00
2013-2-17,65.6,41.0,19.4,14.9,4.9,-10.7,61,29,6,29.82,29.33,14,1,21,0.00
2013-2-18,41.9,29.0,13.3,19.4,6.9,-3.2,79,46,15,30.14,29.59,11,1,19,0.00
2013-2-19,41.2,26.7,12.8,11.8,7.2,1.9,71,46,22,30.16,29.73,5,0,8,0.00
2013-2-20,36.6,25.9,17.7,24.8,16.1,10.8,86,68,40,29.80,29.61,4,0,7,0.00
2013-2-21,27.3,19.9,14.4,18.1,13.8,9.1,83,77,63,30.00,29.71,2,0,3,0.20
2013-2-22,36.6,22.6,9.3,20.5,11.6,2.8,82,64,32,30.03,29.82,1,0,5,0.00
2013-2-23,48.6,31.6,15.2,24.3,14.5,1.1,83,51,26,29.88,29.47,6,0,10,0.00
2013-2-24,28.7,25.9,22.7,24.5,21.5,15.0,86,83,71,30.16,29.59,11,1,14,0.01
2013-2-25,41.1,20.7,0.5,16.2,7.6,-6.2,81,60,27,30.26,29.89,2,0,5,0.09
2013-2-26,35.2,25.6,9.9,25.7,15.9,1.5,80,67,49,30.16,29.78,6,1,8,0.04
2013-2-27,39.1,23.1,4.8,12.4,5.4,-2.5,72,49,25,30.41,30.15,5,0,5,0.00
2013-2-28,42.2,27.1,6.9,13.6,7.1,-0.9,73,45,22,30.41,30.10,8,1,13,0.00
2013-3-1,46.2,34.8,18.1,22.6,16.7,9.7,77,49,29,30.34,30.12,3,0,8,0.00
2013-3-2,58.9,43.0,26.0,26.6,22.6,18.2,76,48,23,30.27,29.86,3,0,7,0.00
2013-3-3,66.4,49.0,34.0,26.8,21.7,15.9,72,38,17,29.86,29.40,10,1,25,0.00
2013-3-4,45.1,29.7,16.5,26.5,20.7,9.4,82,70,41,30.29,29.38,9,0,14,0.02
2013-3-5,29.1,15.9,10.2,16.7,8.6,4.6,79,73,55,30.42,30.29,2,0,3,0.00
2013-3-6,58.7,45.1,28.2,25.8,19.5,10.3,71,41,15,29.96,29.72,3,0,6,0.00
2013-3-7,63.7,45.6,25.0,27.5,21.8,15.3,76,44,16,29.88,29.69,8,1,10,0.00
2013-3-8,46.7,36.1,26.6,29.9,26.5,20.4,84,69,45,29.83,29.60,3,0,4,0.00
2013-3-9,34.9,32.1,28.4,29.6,27.8,24.0,88,84,77,29.65,29.49,1,0,2,0.00
2013-3-10,43.1,32.8,19.5,21.8,16.3,9.5,78,53,29,30.22,29.97,1,0,2,0.17
2013-3-11,52.2,40.2,29.3,28.3,20.0,11.1,88,49,27,30.04,29.71,12,1,17,0.01
2013-3-12,39.8,28.5,24.1,27.5,22.8,18.7,89,79,57,30.34,30.04,2,0,3,0.26
2013-3-13,65.6,45.1,24.2,35.4,24.3,18.5,86,48,20,30.28,29.93,8,0,16,0.00
2013-3-14,74.0,52.5,35.5,29.4,23.0,11.4,67,37,10,30.12,29.83,8,1,13,0.00
2013-3-15,75.3,60.3,42.9,30.0,21.7,16.4,56,25,11,29.84,29.49,14,2,22,0.00
2013-3-16,56.5,44.7,31.9,31.8,29.0,24.8,80,56,30,29.83,29.52,10,1,17,0.00
2013-3-17,61.5,42.0,25.7,30.0,20.0,5.2,80,47,15,29.66,29.33,19,3,30,0.00
2013-3-18,52.0,39.7,31.6,17.1,8.9,2.0,48,28,18,29.83,29.65,16,2,25,0.00
2013-3-19,56.6,41.7,23.3,15.1,2.6,-12.9,65,23,6,30.31,29.75,13,2,28,0.00
2013-3-20,52.8,35.0,17.7,23.2,16.7,11.4,77,52,22,30.26,29.63,11,0,11,0.00
2013-3-21,62.3,42.4,28.5,29.8,18.2,6.6,74,42,18,29.67,29.31,11,2,19,0.00
2013-3-22,48.5,32.8,21.4,26.2,17.8,7.1,86,57,28,29.84,29.51,12,1,21,0.00
2013-3-23,26.6,17.4,4.7,23.0,12.2,-0.9,86,80,71,30.42,29.83,5,1,18,0.02
2013-3-24,26.0,13.4,-2.0,15.9,4.8,-8.5,79,69,52,30.39,30.27,1,0,3,0.19
2013-3-25,36.5,22.2,4.7,14.0,9.7,-0.9,81,61,34,30.44,30.26,1,0,2,0.01
2013-3-26,55.0,32.6,12.4,27.7,17.9,6.6,79,57,24,30.26,29.87,8,0,9,0.00
2013-3-27,54.5,39.6,26.7,35.5,27.6,20.0,85,64,39,30.03,29.87,5,0,7,0.00
2013-3-28,64.7,44.7,28.5,35.5,28.9,24.5,87,60,23,30.02,29.86,3,0,7,0.00
2013-3-29,68.4,49.4,31.8,35.6,28.6,22.7,82,50,20,30.00,29.83,7,1,14,0.00
2013-3-30,68.6,49.6,34.1,36.3,28.2,18.3,83,50,17,30.04,29.75,17,2,24,0.00
2013-3-31,70.1,48.3,27.0,32.7,23.7,11.5,86,49,11,30.02,29.72,6,1,12,0.00
2013-4-1,51.1,40.5,28.1,32.5,28.4,22.1,82,63,44,30.01,29.86,12,1,16,0.01
2013-4-2,39.3,36.9,35.2,33.8,31.7,29.5,87,81,73,30.04,29.90,2,0,4,0.16
2013-4-3,61.6,46.6,36.2,40.2,32.0,23.8,89,62,26,30.06,29.83,5,0,6,0.03
2013-4-4,69.3,52.0,33.2,34.0,29.0,22.2,81,46,19,30.02,29.73,6,0,10,0.00
2013-4-5,74.6,56.4,40.1,36.7,28.2,19.0,73,40,14,29.74,29.41,11,1,22,0.00
2013-4-6,66.6,54.5,37.5,32.5,22.8,17.5,54,30,17,29.72,29.52,8,1,11,0.00
2013-4-7,65.6,53.6,40.2,33.2,25.6,18.2,66,36,18,29.62,29.40,20,2,24,0.00
2013-4-8,60.7,43.3,26.9,32.9,28.5,22.7,84,59,27,29.67,29.18,21,2,27,0.00
2013-4-9,28.5,17.0,10.2,22.2,10.9,4.2,84,77,69,30.38,29.66,5,1,8,0.01
2013-4-10,30.4,18.3,3.9,17.8,9.3,-2.0,78,68,53,30.38,29.91,2,0,2,0.35
2013-4-11,58.0,37.0,19.5,34.6,25.4,13.2,87,66,33,29.97,29.65,6,0,12,0.26
2013-4-12,60.7,41.3,28.8,35.0,29.2,18.1,88,66,22,29.88,29.64,14,1,22,0.00
2013-4-13,69.8,49.1,26.7,35.7,25.0,14.3,87,49,15,29.85,29.14,11,1,26,0.01
2013-4-14,50.5,41.7,32.7,36.7,18.5,9.9,83,42,21,29.64,29.16,19,2,21,0.10
2013-4-15,38.2,27.9,22.2,24.2,20.3,10.7,85,76,32,30.07,29.57,4,0,10,0.02
2013-4-16,32.2,26.8,22.1,26.6,21.9,18.3,86,81,77,30.07,29.85,8,1,12,0.11
2013-4-17,29.8,25.6,18.4,25.3,21.3,13.3,87,83,76,30.22,29.90,8,1,14,0.06
2013-4-18,35.8,24.8,7.9,18.0,10.9,2.8,83,58,36,30.28,30.13,2,0,3,0.85
2013-4-19,53.3,40.9,26.1,27.4,18.0,8.1,56,40,26,30.17,29.80,11,1,22,0.53
2013-4-20,57.5,44.9,30.3,36.6,29.6,23.6,79,56,32,29.86,29.70,5,0,8,0.00
2013-4-21,63.9,50.0,35.3,31.4,24.0,17.1,77,40,18,29.89,29.70,10,1,17,0.00
2013-4-22,53.3,32.9,22.5,34.5,25.4,18.4,84,75,37,30.31,29.69,9,1,20,0.02
2013-4-23,34.7,24.9,19.7,20.9,16.2,12.6,84,70,44,30.35,30.17,2,0,3,0.35
2013-4-24,55.6,37.1,20.0,26.8,18.5,12.7,81,53,20,30.28,30.03,5,0,10,0.00
2013-4-25,66.3,45.8,25.4,29.3,21.5,11.6,76,45,16,30.11,29.72,6,0,8,0.00
2013-4-26,67.3,51.3,34.4,29.3,22.7,14.0,72,37,15,30.02,29.78,7,1,9,0.00
2013-4-27,75.1,55.6,32.1,30.3,23.1,11.0,74,36,11,30.02,29.72,8,1,12,0.00
2013-4-28,79.6,62.5,40.1,34.1,25.6,19.7,59,28,13,29.78,29.44,10,1,18,0.00
2013-4-29,78.8,62.7,39.8,37.1,28.6,19.5,74,33,13,29.58,29.25,13,2,22,0.00
2013-4-30,55.7,48.8,36.3,39.2,33.5,26.4,85,56,34,29.86,29.25,12,1,22,0.04
2013-5-1,37.3,29.7,22.9,33.5,25.8,18.5,88,85,81,30.68,29.86,5,1,11,0.21
2013-5-2,43.6,31.1,16.7,27.6,18.8,11.9,84,63,33,30.80,30.40,2,0,3,0.37
2013-5-3,58.6,43.4,24.1,32.9,24.9,18.5,84,53,23,30.41,29.90,7,0,8,0.01
2013-5-4,57.8,47.0,32.4,34.3,28.1,23.1,80,50,31,30.04,29.88,6,1,14,0.00
2013-5-5,57.8,46.2,34.6,34.1,26.7,20.4,72,48,31,30.07,29.91,6,0,10,0.00
2013-5-6,63.1,50.4,35.3,39.4,33.2,29.3,81,55,29,29.96,29.67,7,1,10,0.00
2013-5-7,69.8,53.9,39.8,45.8,37.5,29.9,85,58,25,29.77,29.59,8,1,21,0.05
2013-5-8,61.2,47.8,38.8,45.9,39.8,34.7,86,75,43,29.92,29.67,7,1,12,0.24
2013-5-9,56.2,48.7,38.5,46.6,40.6,34.7,89,74,50,30.04,29.83,6,0,8,0.27
2013-5-10,66.8,51.9,35.2,45.6,36.8,30.8,88,60,30,30.09,29.96,6,0,13,0.01
2013-5-11,71.3,54.3,39.2,46.3,37.8,31.8,83,56,31,30.21,29.96,7,0,12,0.08
2013-5-12,78.1,62.0,43.1,42.5,37.4,29.3,82,46,19,30.00,29.73,7,0,11,0.00
2013-5-13,86.1,67.9,47.0,46.4,39.9,32.6,73,40,18,29.83,29.62,7,0,10,0.00
2013-5-14,85.9,66.9,48.6,45.3,38.7,32.1,72,39,16,29.68,29.48,13,2,22,0.00
2013-5-15,79.0,63.0,48.0,52.3,43.1,34.7,81,53,23,29.76,29.48,14,1,20,0.12
2013-5-16,81.4,63.3,46.5,50.6,43.2,32.7,86,54,20,29.66,29.43,8,0,11,0.00
2013-5-17,87.6,67.5,45.2,44.6,35.2,19.7,79,38,11,29.58,29.34,12,1,18,0.00
2013-5-18,76.3,61.3,44.9,42.1,34.0,18.6,67,38,17,29.59,29.35,6,0,10,0.00
2013-5-19,69.4,58.0,45.4,37.8,31.4,22.9,71,39,19,29.55,29.44,13,1,18,0.00
2013-5-20,65.0,52.9,42.9,49.1,40.8,33.6,86,65,40,29.79,29.54,9,1,13,0.06
2013-5-21,70.4,55.1,36.9,43.5,33.4,26.0,88,50,20,29.86,29.61,15,1,16,0.00
2013-5-22,74.4,58.0,40.5,50.1,38.0,30.7,79,52,23,29.76,29.56,7,1,16,0.03
2013-5-23,70.4,57.6,47.1,50.7,45.5,42.5,86,66,41,29.83,29.64,5,0,8,0.00
2013-5-24,81.4,63.5,41.9,50.4,40.9,32.5,88,51,19,29.73,29.53,8,1,13,0.00
2013-5-25,87.0,69.3,46.7,50.5,36.9,17.1,84,39,8,29.66,29.42,6,0,9,0.00
2013-5-26,84.1,67.1,48.6,46.9,33.5,19.8,61,32,10,29.55,29.42,8,1,18,0.00
2013-5-27,81.2,65.1,42.9,40.3,30.5,20.0,63,32,11,29.56,29.36,12,0,13,0.00
2013-5-28,82.6,63.8,43.3,46.2,35.5,21.5,64,38,13,29.52,29.17,21,1,29,0.00
2013-5-29,64.3,53.8,48.2,51.2,45.5,29.3,87,74,49,29.38,29.21,6,0,11,0.35
2013-5-30,68.9,60.0,52.3,30.7,27.0,21.9,43,29,18,29.58,29.36,29,3,29,0.00
2013-5-31,71.8,61.7,48.0,23.6,18.0,13.2,36,19,11,29.67,29.53,18,3,22,0.00
2013-6-1,68.8,56.0,38.5,42.2,34.6,22.1,80,47,28,29.94,29.70,11,1,12,0.00
2013-6-2,84.7,63.5,38.2,41.2,34.3,27.3,75,39,13,29.94,29.42,7,0,12,0.00
2013-6-3,91.8,70.6,43.2,43.2,32.4,20.6,73,33,8,29.50,29.31,17,1,24,0.00
2013-6-4,74.2,59.7,49.4,51.4,43.6,27.9,81,56,33,29.95,29.44,17,1,19,0.03
2013-6-5,59.8,51.6,47.0,48.2,44.0,40.7,85,76,61,29.99,29.87,3,0,7,0.04
2013-6-6,77.6,61.2,39.1,47.5,39.2,33.1,85,50,21,29.94,29.68,3,0,8,0.00
2013-6-7,83.0,64.1,45.5,44.9,40.5,36.7,77,46,21,29.79,29.44,11,0,13,0.00
2013-6-8,76.3,65.2,49.8,48.2,41.2,35.7,70,44,26,29.73,29.31,12,1,22,0.00
2013-6-9,89.3,69.9,43.5,46.1,38.5,31.3,80,39,14,29.76,29.45,5,0,8,0.00
2013-6-10,99.4,77.8,49.8,47.1,38.1,30.1,68,30,10,29.54,29.31,12,1,17,0.00
2013-6-11,100.7,79.2,52.2,47.3,31.7,16.9,62,24,6,29.52,29.29,17,2,27,0.00
2013-6-12,92.3,75.7,54.5,50.9,34.0,22.9,52,24,11,29.70,29.42,10,1,14,0.00
2013-6-13,83.0,70.2,55.9,55.0,50.3,33.9,82,53,22,29.73,29.50,11,1,18,0.00
2013-6-14,89.9,78.3,59.3,44.8,37.6,28.4,57,25,11,29.54,29.40,11,2,18,0.00
2013-6-15,81.1,68.7,51.7,49.4,45.4,41.7,72,45,27,29.71,29.53,5,0,10,0.00
2013-6-16,86.3,68.4,51.3,51.9,42.3,27.1,80,44,13,29.80,29.59,16,1,25,0.00
2013-6-17,81.1,66.3,47.3,49.7,42.1,34.7,72,45,20,29.85,29.61,10,1,14,0.00
2013-6-18,82.6,67.7,54.1,55.1,47.9,38.6,81,52,21,29.78,29.49,7,0,16,0.02
2013-6-19,96.3,72.0,48.5,50.7,39.7,24.5,81,40,8,29.63,29.23,5,0,13,0.00
2013-6-20,89.3,71.6,47.7,43.5,33.7,24.5,60,29,10,29.55,29.32,5,0,11,0.00
2013-6-21,91.4,74.9,52.8,55.4,37.4,20.6,69,32,9,29.55,29.32,8,1,20,0.00
2013-6-22,86.1,69.9,53.1,47.5,44.0,35.9,68,42,17,29.59,29.35,6,0,12,0.00
2013-6-23,84.7,66.9,47.3,51.2,44.7,38.3,79,49,21,29.67,29.44,8,1,17,0.12
2013-6-24,89.0,73.3,57.5,52.4,41.1,22.1,73,37,12,29.55,29.31,7,1,11,0.00
2013-6-25,91.8,74.7,51.4,45.0,35.0,24.9,58,26,12,29.60,29.34,9,1,14,0.00
2013-6-26,97.1,77.4,50.5,47.2,39.0,31.4,70,31,11,29.71,29.51,5,0,14,0.00
2013-6-27,96.3,79.2,57.5,48.4,41.2,34.2,57,30,12,29.76,29.58,8,1,11,0.00
2013-6-28,91.6,75.8,57.0,57.1,48.8,42.4,75,41,25,29.85,29.65,11,2,19,0.06
2013-6-29,83.8,70.5,59.0,56.7,52.2,44.3,78,54,28,29.84,29.67,10,0,12,0.00
2013-6-30,79.0,68.2,61.6,54.9,52.5,49.4,73,58,38,29.85,29.74,6,0,10,0.00
2013-7-1,84.5,66.7,52.3,54.8,50.3,45.0,86,59,33,29.95,29.82,12,1,20,0.37
2013-7-2,81.2,66.6,51.3,55.7,48.8,41.9,91,58,27,29.92,29.74,5,0,10,0.01
2013-7-3,89.5,69.4,49.9,51.1,46.0,40.5,80,48,20,29.79,29.52,4,0,6,0.00
2013-7-4,90.3,72.0,52.5,53.3,46.4,40.9,76,45,19,29.61,29.46,16,1,22,0.01
2013-7-5,90.1,72.3,58.6,60.1,49.6,41.7,77,48,22,29.51,29.38,13,1,16,0.01
2013-7-6,90.7,73.4,59.6,64.0,49.3,39.8,77,48,18,29.61,29.39,13,1,19,0.07
2013-7-7,88.2,73.3,58.0,55.4,50.9,44.1,81,49,26,29.69,29.54,13,1,13,0.00
2013-7-8,98.7,75.0,59.6,56.0,48.2,34.1,72,44,12,29.67,29.51,13,1,20,0.00
2013-7-9,97.1,76.7,59.2,54.1,45.1,35.6,69,38,14,29.74,29.63,14,1,21,0.00
2013-7-10,92.1,74.8,55.9,56.8,49.4,38.0,72,43,23,29.82,29.56,7,1,10,0.00
2013-7-11,98.5,77.1,55.9,58.5,50.4,35.2,81,46,12,29.69,29.40,12,1,24,0.20
2013-7-12,93.6,73.6,59.9,65.1,55.6,45.2,86,58,24,29.68,29.44,7,0,13,0.09
2013-7-13,90.3,71.3,62.3,61.8,57.8,49.7,89,67,27,29.82,29.56,14,0,22,0.30
2013-7-14,81.1,68.9,55.3,60.5,56.8,52.7,91,67,41,29.87,29.68,8,1,11,0.01
2013-7-15,81.2,68.7,59.5,65.2,58.4,48.6,90,71,49,29.82,29.70,5,0,12,0.10
2013-7-16,85.1,68.4,51.1,55.5,48.9,43.7,90,55,27,29.84,29.73,5,0,7,0.00
2013-7-17,92.1,73.1,52.6,57.0,50.4,44.4,84,50,22,29.86,29.64,3,0,11,0.00
2013-7-18,92.7,75.1,59.2,55.3,50.6,43.7,75,46,22,29.72,29.61,8,1,16,0.00
2013-7-19,85.5,73.8,63.7,57.9,53.8,47.2,74,52,27,29.77,29.64,11,1,16,0.00
2013-7-20,91.4,72.5,54.7,55.0,50.3,44.9,80,50,22,29.69,29.50,14,1,21,0.00
2013-7-21,90.5,72.4,53.1,57.7,53.2,42.2,81,54,27,29.59,29.42,7,1,12,0.00
2013-7-22,94.0,76.9,56.3,58.2,48.3,32.4,79,41,19,29.56,29.45,7,1,12,0.00
2013-7-23,91.4,73.7,53.1,55.2,46.3,36.2,67,42,19,29.69,29.49,6,1,11,0.00
2013-7-24,83.2,73.0,61.0,58.6,52.1,41.4,75,50,27,29.81,29.61,13,1,20,0.00
2013-7-25,80.3,65.5,57.6,59.9,53.2,46.2,83,66,35,29.97,29.65,7,0,18,0.11
2013-7-26,85.7,70.1,53.3,55.8,48.9,40.8,84,52,22,29.97,29.71,7,0,12,0.00
2013-7-27,77.7,65.0,50.8,58.5,50.9,44.4,87,62,41,29.80,29.68,7,1,12,0.10
2013-7-28,70.6,62.4,59.2,63.4,57.0,53.0,90,83,63,29.71,29.58,2,0,3,0.13
2013-7-29,74.2,62.9,56.5,60.9,55.4,50.5,90,77,47,29.87,29.61,3,0,6,0.04
2013-7-30,87.8,70.3,52.9,57.0,49.6,43.3,86,54,22,29.89,29.76,8,0,24,0.01
2013-7-31,93.4,74.8,57.5,53.2,48.8,39.5,75,45,16,29.96,29.70,7,0,9,0.00
2013-8-1,93.8,73.4,55.7,57.9,50.8,38.9,83,50,15,29.78,29.51,10,1,16,0.00
2013-8-2,93.8,75.8,58.1,53.7,47.8,38.2,73,42,16,29.62,29.51,7,1,14,0.00
2013-8-3,91.8,71.4,59.3,57.7,52.0,41.3,85,56,18,29.94,29.54,13,1,21,0.07
2013-8-4,91.6,72.1,54.7,55.2,49.7,40.1,81,49,19,29.86,29.65,7,0,13,0.01
2013-8-5,86.3,71.5,53.5,53.7,47.9,41.6,75,46,25,29.73,29.58,7,0,14,0.00
2013-8-6,89.7,70.1,53.6,55.9,47.8,39.1,79,50,19,29.80,29.53,10,1,20,0.04
2013-8-7,75.3,65.0,57.5,56.4,50.6,44.3,76,61,38,29.77,29.55,6,0,8,0.01
2013-8-8,80.3,64.8,56.5,57.7,52.4,42.9,87,67,38,29.86,29.68,5,0,7,0.00
2013-8-9,85.3,64.9,48.5,52.6,46.4,40.8,82,55,22,29.91,29.77,6,0,7,0.00
2013-8-10,89.3,67.1,47.3,54.4,44.7,38.7,81,51,18,29.94,29.72,11,0,12,0.38
2013-8-11,81.8,69.3,57.5,53.6,48.2,42.8,74,50,27,29.88,29.70,5,0,11,0.00
2013-8-12,80.5,66.4,52.2,54.9,49.9,41.4,84,59,26,29.92,29.76,8,1,12,0.24
2013-8-13,78.5,64.8,52.9,53.9,49.7,44.9,84,60,31,29.93,29.77,6,1,8,0.04
2013-8-14,81.6,66.4,51.4,56.8,48.4,40.1,86,56,24,29.92,29.73,7,0,8,0.00
2013-8-15,85.7,67.0,48.3,50.6,45.5,36.4,82,51,20,29.83,29.72,5,0,7,0.00
2013-8-16,92.1,70.5,50.5,51.0,44.3,34.1,81,46,14,29.84,29.71,3,0,6,0.00
2013-8-17,96.1,73.5,52.3,55.2,44.8,31.2,82,44,11,29.78,29.59,3,0,3,0.00
2013-8-18,95.6,72.9,52.5,56.4,44.6,34.7,72,42,13,29.76,29.59,5,0,9,0.00
2013-8-19,97.3,75.0,52.6,52.3,45.3,35.4,74,42,13,29.74,29.56,5,0,5,0.00
2013-8-20,98.5,78.6,53.6,52.5,42.0,28.1,74,35,9,29.65,29.49,3,0,6,0.00
2013-8-21,91.8,73.9,61.8,57.9,49.0,41.9,80,47,19,29.79,29.50,13,0,13,0.20
2013-8-22,80.9,68.7,58.9,60.4,56.4,52.9,85,66,47,29.89,29.68,6,0,8,0.04
2013-8-23,88.4,70.0,58.4,58.0,54.5,48.7,79,60,27,29.79,29.53,8,0,11,0.13
2013-8-24,86.5,68.9,52.9,59.5,51.5,47.5,87,57,27,29.75,29.59,3,0,8,0.00
2013-8-25,88.2,72.1,57.0,56.6,50.4,44.8,80,51,23,29.78,29.66,3,0,7,0.00
2013-8-26,91.4,74.4,56.9,58.7,52.5,48.5,83,51,25,29.78,29.62,3,0,7,0.00
2013-8-27,91.8,75.5,57.0,59.6,53.9,49.9,83,52,25,29.79,29.58,2,0,6,0.00
2013-8-28,93.4,75.3,56.7,58.7,50.4,44.3,82,47,19,29.75,29.60,3,0,6,0.00
2013-8-29,94.9,75.3,56.3,55.8,47.4,41.3,76,43,17,29.79,29.65,4,0,10,0.00
2013-8-30,92.1,73.9,63.5,57.0,51.3,45.3,66,47,22,29.80,29.62,6,0,11,0.00
2013-8-31,91.2,72.9,60.1,55.1,49.2,43.0,68,46,20,29.73,29.58,8,0,11,0.00
2013-9-1,80.9,69.6,60.4,59.1,55.6,45.8,85,62,41,29.84,29.65,3,0,5,0.16
2013-9-2,92.1,71.3,54.4,59.4,53.1,42.0,87,59,19,29.80,29.61,2,0,4,0.00
2013-9-3,94.7,76.9,60.4,55.4,50.0,45.3,74,43,19,29.76,29.57,11,0,12,0.00
2013-9-4,92.7,75.5,62.1,57.8,51.3,46.2,72,46,22,29.78,29.61,2,0,4,0.00
2013-9-5,92.5,73.6,58.3,55.6,50.8,43.5,76,49,19,29.84,29.66,3,0,6,0.00
2013-9-6,97.1,75.6,56.0,52.9,47.3,40.1,72,42,15,29.79,29.61,7,0,8,0.00
2013-9-7,93.4,73.3,54.4,54.4,47.0,36.8,77,46,15,29.76,29.58,3,0,6,0.00
2013-9-8,89.7,70.8,53.2,52.0,46.1,41.6,76,46,20,29.67,29.45,4,0,7,0.00
2013-9-9,83.8,65.1,53.5,59.7,51.6,45.7,88,65,29,29.76,29.47,7,0,11,0.51
2013-9-10,64.3,60.4,57.8,58.4,56.4,54.9,90,87,76,29.91,29.62,3,0,4,0.48
2013-9-11,66.0,61.4,59.6,62.0,58.1,56.3,91,89,80,29.90,29.83,3,0,5,1.63
2013-9-12,62.9,60.3,58.4,60.5,57.7,55.8,92,91,89,29.97,29.87,3,0,6,1.39
2013-9-13,73.7,62.8,58.0,62.3,57.8,54.8,92,84,58,29.88,29.53,3,0,5,0.28
2013-9-14,74.7,63.6,57.3,61.2,55.8,47.5,89,77,39,29.69,29.52,2,0,4,0.02
2013-9-15,61.6,57.6,54.8,55.8,53.8,51.9,91,87,80,30.01,29.67,6,0,8,0.38
2013-9-16,73.0,60.9,54.4,57.0,53.4,50.3,92,78,52,30.00,29.72,112,18,113,0.05
2013-9-17,84.1,64.2,48.3,59.2,47.5,36.7,91,62,19,29.78,29.46,113,41,113,0.01
2013-9-18,83.6,66.4,52.5,51.9,45.3,37.6,86,51,25,29.53,29.42,10,1,19,0.00
2013-9-19,67.8,58.2,47.7,47.2,43.0,36.8,81,58,39,29.96,29.46,2,0,3,0.00
2013-9-20,75.3,57.1,46.0,46.8,43.4,37.6,86,64,28,29.97,29.73,2,0,3,0.00
2013-9-21,82.6,61.7,43.8,50.4,42.9,37.0,87,57,21,29.80,29.44,2,0,4,0.00
2013-9-22,78.6,60.8,48.3,52.3,45.9,42.0,83,62,28,29.53,29.24,10,0,13,0.10
2013-9-23,65.8,55.8,44.1,47.4,37.6,28.5,88,55,27,29.82,29.21,12,1,17,0.31
2013-9-24,76.0,53.9,37.6,46.8,36.1,29.9,86,58,19,29.97,29.56,2,0,3,0.00
2013-9-25,79.8,57.5,38.9,49.5,41.2,33.6,84,59,26,29.60,29.19,8,0,11,0.00
2013-9-26,66.1,54.6,42.1,45.6,41.7,36.5,84,63,45,29.59,29.20,3,0,5,0.00
2013-9-27,52.9,46.5,38.2,48.5,43.0,34.3,90,87,77,29.90,29.44,2,0,5,0.22
2013-9-28,70.4,51.6,38.9,39.0,30.2,22.5,78,47,23,30.00,29.79,5,0,10,0.00
2013-9-29,76.7,57.1,37.3,42.4,32.1,21.8,80,45,16,29.91,29.52,5,0,11,0.00
2013-9-30,81.6,62.3,50.1,48.4,38.9,28.0,68,45,21,29.67,29.41,3,0,6,0.00
2013-10-1,72.5,56.4,42.2,45.4,39.5,33.9,80,56,29,29.85,29.57,5,0,7,0.00
2013-10-2,76.8,56.3,39.9,50.7,38.7,33.5,88,58,21,29.78,29.57,5,0,8,0.00
2013-10-3,61.2,49.9,38.0,45.7,39.8,33.0,88,70,48,29.68,29.51,6,0,6,0.05
2013-10-4,47.7,37.1,30.3,44.3,32.2,25.5,89,83,68,30.18,29.52,8,1,13,0.33
2013-10-5,61.6,40.3,26.7,37.3,23.0,15.6,87,58,18,30.20,29.98,6,0,11,0.01
2013-10-6,68.6,46.3,30.1,39.1,29.3,23.5,82,58,22,30.23,29.96,2,0,3,0.00
2013-10-7,79.2,51.5,32.2,45.4,32.8,22.9,88,58,13,30.06,29.61,2,0,3,0.01
2013-10-8,74.6,54.7,42.8,45.0,35.8,25.0,75,55,16,29.68,29.44,3,0,6,0.00
2013-10-9,61.8,50.7,40.1,44.4,38.2,33.5,81,64,44,29.78,29.54,7,0,8,0.00
2013-10-10,57.8,49.1,41.6,47.0,40.3,28.2,87,72,42,29.70,29.29,5,0,11,0.10
2013-10-11,61.6,52.0,38.0,37.3,29.4,21.8,80,44,27,29.86,29.15,16,2,32,0.00
2013-10-12,55.0,45.9,37.9,42.1,37.8,32.0,86,74,56,30.05,29.84,3,0,6,0.00
2013-10-13,58.6,45.1,32.2,43.5,36.5,28.2,88,73,50,30.05,29.67,2,0,3,0.00
2013-10-14,56.9,43.8,37.2,41.0,34.2,28.4,86,70,42,30.03,29.62,11,1,13,0.01
2013-10-15,45.4,38.0,34.4,29.9,25.3,21.6,72,60,49,30.24,30.02,2,0,3,0.00
2013-10-16,53.2,38.0,25.4,33.2,25.3,20.1,83,63,34,30.14,29.89,2,0,3,0.01
2013-10-17,48.0,39.5,32.4,31.3,28.7,26.9,81,66,48,30.09,29.91,2,0,5,0.00
2013-10-18,44.1,35.2,27.3,35.6,27.8,22.0,89,76,51,30.15,29.93,3,0,4,0.17
2013-10-19,65.0,46.6,26.7,30.4,23.0,18.7,84,44,18,30.07,29.67,5,0,10,0.00
2013-10-20,55.0,43.0,30.9,35.3,28.4,18.6,86,61,24,30.05,29.57,7,0,8,0.14
2013-10-21,60.1,40.5,26.6,41.8,27.8,22.8,90,66,25,30.18,29.88,5,0,7,0.01
2013-10-22,63.2,48.9,33.4,34.4,28.1,21.5,77,48,27,30.14,29.86,4,0,6,0.00
2013-10-23,66.1,44.2,30.4,40.3,29.7,25.6,85,62,27,30.12,29.93,2,0,3,0.00
2013-10-24,54.5,42.3,31.5,38.8,32.9,25.1,84,70,53,30.20,29.97,3,0,5,0.00
2013-10-25,66.4,45.7,29.4,44.2,30.4,25.2,88,61,24,30.16,29.90,2,0,3,0.01
2013-10-26,63.9,45.0,31.8,39.9,30.2,25.8,83,60,27,30.30,29.96,2,0,2,0.00
2013-10-27,69.4,47.8,30.3,35.3,26.6,18.7,80,51,15,30.00,29.61,6,0,9,0.00
2013-10-28,44.8,35.9,32.4,32.8,29.8,25.5,89,79,52,29.99,29.62,2,0,5,0.04
2013-10-29,37.3,34.4,32.2,32.9,30.8,29.4,90,87,79,29.97,29.76,2,0,3,0.04
2013-10-30,43.9,37.6,31.6,38.4,30.3,19.5,90,77,42,29.81,29.69,3,0,5,0.07
2013-10-31,53.2,45.3,38.0,24.4,18.7,14.3,47,35,24,29.76,29.60,14,2,28,0.00
2013-11-1,54.1,41.2,30.1,32.8,24.3,17.2,75,53,25,30.14,29.73,5,0,7,0.00
2013-11-2,63.9,39.2,24.2,29.1,21.9,16.5,80,55,16,30.17,29.53,2,0,5,0.00
2013-11-3,69.9,48.4,32.2,29.1,21.1,13.1,72,40,12,29.60,29.32,10,0,10,0.02
2013-11-4,42.2,34.3,26.6,28.3,19.9,12.8,81,57,31,29.95,29.60,3,0,6,0.00
2013-11-5,46.7,32.8,20.0,22.5,14.0,1.5,69,49,18,30.16,29.83,4,0,10,0.00
2013-11-6,51.7,39.7,22.4,17.3,12.0,5.6,53,33,21,30.20,30.06,10,1,13,0.00
2013-11-7,55.4,39.7,26.4,25.9,20.2,15.2,72,48,27,30.35,29.86,3,0,6,0.00
2013-11-8,67.8,44.9,27.2,27.1,20.8,15.4,76,45,16,29.85,29.64,11,1,18,0.00
2013-11-9,65.2,45.5,31.0,31.9,25.5,20.3,69,48,18,30.13,29.78,7,0,8,0.00
2013-11-10,65.6,43.5,26.9,35.4,22.7,18.3,81,50,17,30.21,29.93,3,0,5,0.00
2013-11-11,68.9,39.8,30.0,30.8,24.2,17.7,81,59,14,30.54,29.95,11,0,19,0.00
2013-11-12,60.9,38.7,25.7,35.1,24.7,20.4,85,62,26,30.63,30.24,1,0,2,0.00
2013-11-13,68.9,44.8,23.3,31.3,17.7,9.4,79,43,11,30.30,29.68,3,0,5,0.00
2013-11-14,57.0,44.7,32.9,30.9,23.9,19.4,66,46,25,29.94,29.56,5,0,10,0.00
2013-11-15,66.0,43.1,25.3,25.9,18.2,11.6,73,44,13,29.63,29.23,11,1,16,0.00
2013-11-16,61.2,44.0,29.3,29.7,19.0,10.8,69,41,16,29.35,29.10,13,1,21,0.00
2013-11-17,58.3,44.5,31.2,25.9,15.8,10.6,65,33,16,29.89,29.30,14,2,17,0.00
2013-11-18,67.4,40.1,21.8,25.3,14.7,9.0,71,41,11,30.10,29.81,6,0,8,0.00
2013-11-19,62.0,42.8,25.1,26.8,20.1,14.5,66,43,21,29.84,29.53,6,0,9,0.00
2013-11-20,62.7,46.8,26.4,26.6,23.0,19.8,80,41,21,29.90,29.49,6,0,13,0.00
2013-11-21,26.3,17.1,13.5,21.0,10.8,5.9,82,76,71,30.75,29.91,2,0,3,0.00
2013-11-22,34.4,25.2,16.5,19.9,14.2,9.0,79,64,42,30.71,30.51,3,0,3,0.07
2013-11-23,35.0,27.3,22.5,21.2,17.5,14.7,79,67,49,30.64,30.27,1,0,2,0.01
2013-11-24,40.9,29.7,21.1,27.0,20.6,14.8,80,70,35,30.26,29.92,3,0,3,0.00
2013-11-25,41.9,34.2,23.3,26.5,20.7,13.3,77,59,33,30.30,29.95,3,0,3,0.00
2013-11-26,48.8,31.4,21.9,32.1,18.1,14.6,83,62,27,30.44,30.17,2,0,5,0.01
2013-11-27,63.2,34.2,19.5,30.1,18.2,13.8,82,59,17,30.25,29.90,1,0,3,0.00
2013-11-28,45.2,31.4,23.3,29.3,20.6,16.5,80,65,43,30.24,29.99,3,0,3,0.00
2013-11-29,63.5,41.7,23.5,31.2,18.3,14.1,82,46,15,30.12,29.92,6,0,8,0.00
2013-11-30,61.6,38.4,25.4,23.0,14.6,10.0,65,43,13,30.17,29.94,2,0,6,0.00
2013-12-1,57.0,45.2,26.1,23.4,17.0,11.0,63,34,19,30.05,29.59,13,2,21,0.00
2013-12-2,61.3,50.8,38.9,21.6,18.1,14.0,48,28,16,29.61,29.28,19,1,24,0.00
2013-12-3,54.7,36.0,11.2,27.1,15.4,4.8,76,47,26,29.79,29.20,11,1,12,0.00
2013-12-4,12.3,6.7,-2.8,4.8,-0.8,-10.4,75,71,63,30.34,29.78,2,0,2,0.00
2013-12-5,4.7,-4.1,-11.5,-4.7,-12.7,-19.4,73,66,59,30.49,30.32,2,0,3,0.01
2013-12-6,7.4,-3.7,-11.5,-0.8,-11.8,-19.4,72,67,63,30.67,30.45,1,0,3,0.00
2013-12-7,12.3,-1.3,-8.9,4.7,-9.0,-16.6,74,69,64,30.53,30.03,1,0,2,0.00
2013-12-8,21.3,7.7,-0.2,9.4,-0.1,-7.1,75,70,56,30.26,29.99,0,0,1,0.00
2013-12-9,28.7,14.6,-3.9,4.9,-4.5,-12.7,73,46,19,30.40,30.09,5,0,6,0.00
2013-12-10,46.0,29.8,15.6,12.7,5.8,-4.3,64,37,22,30.25,29.81,16,1,18,0.04
2013-12-11,33.8,18.4,6.9,18.5,8.9,-0.2,78,66,48,30.52,30.23,3,0,5,0.00
2013-12-12,57.2,26.0,11.6,19.9,11.7,4.7,77,60,17,30.45,29.82,2,0,2,0.00
2013-12-13,49.9,28.8,15.9,27.6,14.0,9.0,77,58,21,30.14,29.77,7,0,7,0.00
2013-12-14,46.2,30.5,14.0,23.6,12.5,7.8,80,51,24,30.40,29.98,5,0,7,0.00
2013-12-15,57.8,46.3,35.5,18.1,13.7,7.5,41,27,16,30.07,29.85,17,2,25,0.00
2013-12-16,63.4,48.6,31.6,17.9,11.6,4.0,45,24,10,30.10,29.82,10,1,19,0.00
2013-12-17,64.2,50.7,31.6,16.4,10.8,6.0,46,21,12,30.19,29.76,9,1,13,0.00
2013-12-18,68.8,51.3,34.4,15.3,11.3,6.3,45,22,9,29.79,29.45,7,1,12,0.00
2013-12-19,43.5,31.4,16.5,23.4,17.8,12.0,82,58,38,29.88,29.42,6,1,7,0.00
2013-12-20,23.9,18.8,13.6,19.4,14.2,8.6,84,82,78,29.90,29.73,0,0,1,0.00
2013-12-21,31.8,20.2,12.3,21.9,13.8,7.0,83,76,57,29.98,29.65,6,0,6,0.00
2013-12-22,40.5,23.5,9.0,21.9,10.7,3.7,82,63,26,30.25,29.94,13,0,13,0.02
2013-12-23,48.5,32.1,18.4,25.0,17.2,13.3,83,59,28,30.34,29.88,9,1,18,0.03
2013-12-24,55.1,39.4,17.7,27.6,15.4,5.6,63,39,22,30.24,29.75,15,2,21,0.00
2013-12-25,46.0,27.6,15.4,14.7,6.6,0.9,68,45,17,30.50,30.14,5,0,7,0.00
2013-12-26,55.6,39.4,21.8,12.5,7.6,1.5,65,31,15,30.26,30.01,7,0,10,0.00
2013-12-27,60.1,33.1,20.3,29.2,15.7,11.4,77,54,18,30.35,29.88,1,0,2,0.00
2013-12-28,60.1,32.2,19.5,28.0,18.5,14.1,81,61,19,30.17,29.71,13,0,13,0.00
2013-12-29,39.2,23.5,8.3,22.3,12.1,2.6,81,64,29,30.39,29.83,3,0,4,0.06
2013-12-30,48.5,38.0,25.7,14.7,11.5,7.0,56,34,21,30.18,29.85,6,1,12,0.00
2013-12-31,56.0,43.6,26.4,19.3,15.7,11.4,57,33,21,29.97,29.65,10,2,21,0.00
2014-1-1,46.5,33.2,19.4,30.3,21.7,14.5,82,65,31,30.33,29.64,6,1,8,0.03
2014-1-2,45.4,27.5,13.8,27.0,17.1,9.1,84,67,34,30.37,29.85,3,0,3,0.04